sensor_id;sensor_type;location;lat;lon;timestamp;P1;durP1;ratioP1;P2;durP2;ratioP2
7523;SDS011;3803;51.666;7.630;2022-11-06T00:00:18;7.70;;;6.40;;
7523;SDS011;3803;51.666;7.630;2022-11-06T00:00:39;9.55;;;6.78;;
7523;SDS011;3803;51.666;7.630;2022-11-06T00:01:10;9.98;;;6.80;;
7523;SDS011;3803;51.666;7.630;2022-11-06T00:01:33;8.38;;;6.50;;
7523;SDS011;3803;51.666;7.630;2022-11-06T00:01:53;8.48;;;7.03;;
7523;SDS011;3803;51.666;7.630;2022-11-06T00:02:14;8.52;;;7.22;;
7523;SDS011;3803;51.666;7.630;2022-11-06T00:02:34;8.57;;;7.00;;
7523;SDS011;3803;51.666;7.630;2022-11-06T00:02:56;7.10;;;6.00;;
7523;SDS011;3803;51.666;7.630;2022-11-06T00:03:18;6.70;;;5.72;;
7523;SDS011;3803;51.666;7.630;2022-11-06T00:03:39;8.02;;;6.13;;
7523;SDS011;3803;51.666;7.630;2022-11-06T00:04:00;9.45;;;6.50;;
7523;SDS011;3803;51.666;7.630;2022-11-06T00:04:21;10.60;;;6.70;;
7523;SDS011;3803;51.666;7.630;2022-11-06T00:04:41;8.10;;;6.30;;
7523;SDS011;3803;51.666;7.630;2022-11-06T00:05:02;10.85;;;6.78;;
7523;SDS011;3803;51.666;7.630;2022-11-06T00:05:41;13.50;;;7.40;;
7523;SDS011;3803;51.666;7.630;2022-11-06T00:06:20;11.10;;;6.80;;
7523;SDS011;3803;51.666;7.630;2022-11-06T00:07:00;8.20;;;6.55;;
7523;SDS011;3803;51.666;7.630;2022-11-06T00:07:20;9.00;;;6.80;;
7523;SDS011;3803;51.666;7.630;2022-11-06T00:07:43;9.20;;;7.05;;
7523;SDS011;3803;51.666;7.630;2022-11-06T00:08:14;8.80;;;6.65;;
7523;SDS011;3803;51.666;7.630;2022-11-06T00:08:36;7.90;;;6.50;;
7523;SDS011;3803;51.666;7.630;2022-11-06T00:08:59;8.27;;;6.72;;
7523;SDS011;3803;51.666;7.630;2022-11-06T00:09:20;8.10;;;6.80;;
7523;SDS011;3803;51.666;7.630;2022-11-06T00:09:41;9.43;;;7.00;;
7523;SDS011;3803;51.666;7.630;2022-11-06T00:10:02;9.55;;;7.30;;
7523;SDS011;3803;51.666;7.630;2022-11-06T00:10:22;8.77;;;7.40;;
7523;SDS011;3803;51.666;7.630;2022-11-06T00:10:43;9.23;;;7.27;;
7523;SDS011;3803;51.666;7.630;2022-11-06T00:11:10;10.38;;;7.20;;
7523;SDS011;3803;51.666;7.630;2022-11-06T00:11:33;10.80;;;6.97;;
7523;SDS011;3803;51.666;7.630;2022-11-06T00:11:54;9.00;;;6.90;;
7523;SDS011;3803;51.666;7.630;2022-11-06T00:12:15;8.13;;;6.85;;
7523;SDS011;3803;51.666;7.630;2022-11-06T00:12:36;7.57;;;6.77;;
7523;SDS011;3803;51.666;7.630;2022-11-06T00:12:56;8.18;;;6.70;;
7523;SDS011;3803;51.666;7.630;2022-11-06T00:13:18;8.10;;;6.60;;
7523;SDS011;3803;51.666;7.630;2022-11-06T00:13:39;8.35;;;6.70;;
7523;SDS011;3803;51.666;7.630;2022-11-06T00:14:00;7.70;;;6.45;;
7523;SDS011;3803;51.666;7.630;2022-11-06T00:14:22;7.57;;;6.30;;
7523;SDS011;3803;51.666;7.630;2022-11-06T00:14:43;8.57;;;6.40;;
7523;SDS011;3803;51.666;7.630;2022-11-06T00:15:03;9.40;;;6.70;;
7523;SDS011;3803;51.666;7.630;2022-11-06T00:15:24;10.23;;;7.13;;
7523;SDS011;3803;51.666;7.630;2022-11-06T00:15:45;10.17;;;6.87;;
7523;SDS011;3803;51.666;7.630;2022-11-06T00:16:07;10.00;;;6.82;;
7523;SDS011;3803;51.666;7.630;2022-11-06T00:16:32;10.65;;;6.72;;
7523;SDS011;3803;51.666;7.630;2022-11-06T00:16:52;8.90;;;6.65;;
7523;SDS011;3803;51.666;7.630;2022-11-06T00:17:13;9.13;;;6.40;;
7523;SDS011;3803;51.666;7.630;2022-11-06T00:17:34;8.63;;;6.30;;
7523;SDS011;3803;51.666;7.630;2022-11-06T00:17:55;9.50;;;6.70;;
7523;SDS011;3803;51.666;7.630;2022-11-06T00:18:15;8.77;;;7.05;;
7523;SDS011;3803;51.666;7.630;2022-11-06T00:18:37;8.02;;;7.00;;
7523;SDS011;3803;51.666;7.630;2022-11-06T00:18:59;7.55;;;6.85;;
7523;SDS011;3803;51.666;7.630;2022-11-06T00:19:20;7.80;;;7.00;;
7523;SDS011;3803;51.666;7.630;2022-11-06T00:19:41;8.23;;;7.30;;
7523;SDS011;3803;51.666;7.630;2022-11-06T00:20:02;8.00;;;7.20;;
7523;SDS011;3803;51.666;7.630;2022-11-06T00:20:24;7.32;;;6.60;;
7523;SDS011;3803;51.666;7.630;2022-11-06T00:20:44;7.40;;;6.55;;
7523;SDS011;3803;51.666;7.630;2022-11-06T00:21:09;9.37;;;6.80;;
7523;SDS011;3803;51.666;7.630;2022-11-06T00:21:33;9.18;;;6.70;;
7523;SDS011;3803;51.666;7.630;2022-11-06T00:21:57;8.40;;;6.50;;
7523;SDS011;3803;51.666;7.630;2022-11-06T00:22:18;7.63;;;6.43;;
7523;SDS011;3803;51.666;7.630;2022-11-06T00:22:38;7.72;;;6.43;;
7523;SDS011;3803;51.666;7.630;2022-11-06T00:22:59;8.83;;;6.57;;
7523;SDS011;3803;51.666;7.630;2022-11-06T00:23:19;8.50;;;6.38;;
7523;SDS011;3803;51.666;7.630;2022-11-06T00:23:40;9.90;;;6.50;;
7523;SDS011;3803;51.666;7.630;2022-11-06T00:24:02;9.23;;;6.38;;
7523;SDS011;3803;51.666;7.630;2022-11-06T00:24:24;9.50;;;6.35;;
7523;SDS011;3803;51.666;7.630;2022-11-06T00:24:45;9.95;;;6.53;;
7523;SDS011;3803;51.666;7.630;2022-11-06T00:25:05;10.23;;;6.67;;
7523;SDS011;3803;51.666;7.630;2022-11-06T00:25:27;9.23;;;6.90;;
7523;SDS011;3803;51.666;7.630;2022-11-06T00:25:50;9.63;;;6.80;;
7523;SDS011;3803;51.666;7.630;2022-11-06T00:26:17;9.70;;;6.50;;
7523;SDS011;3803;51.666;7.630;2022-11-06T00:26:40;9.23;;;6.93;;
7523;SDS011;3803;51.666;7.630;2022-11-06T00:27:02;8.90;;;7.07;;
7523;SDS011;3803;51.666;7.630;2022-11-06T00:27:23;7.95;;;7.05;;
7523;SDS011;3803;51.666;7.630;2022-11-06T00:27:43;8.67;;;7.00;;
7523;SDS011;3803;51.666;7.630;2022-11-06T00:28:04;8.57;;;6.75;;
7523;SDS011;3803;51.666;7.630;2022-11-06T00:28:24;9.82;;;7.07;;
7523;SDS011;3803;51.666;7.630;2022-11-06T00:28:45;9.97;;;6.97;;
7523;SDS011;3803;51.666;7.630;2022-11-06T00:29:06;13.00;;;7.60;;
7523;SDS011;3803;51.666;7.630;2022-11-06T00:29:26;12.45;;;7.38;;
7523;SDS011;3803;51.666;7.630;2022-11-06T00:29:47;11.77;;;7.13;;
7523;SDS011;3803;51.666;7.630;2022-11-06T00:30:08;9.57;;;6.85;;
7523;SDS011;3803;51.666;7.630;2022-11-06T00:30:33;9.10;;;6.78;;
7523;SDS011;3803;51.666;7.630;2022-11-06T00:30:59;8.43;;;6.40;;
7523;SDS011;3803;51.666;7.630;2022-11-06T00:31:25;8.13;;;6.13;;
7523;SDS011;3803;51.666;7.630;2022-11-06T00:31:50;7.97;;;6.50;;
7523;SDS011;3803;51.666;7.630;2022-11-06T00:32:11;8.45;;;6.30;;
7523;SDS011;3803;51.666;7.630;2022-11-06T00:32:32;10.95;;;6.50;;
7523;SDS011;3803;51.666;7.630;2022-11-06T00:32:52;11.70;;;6.53;;
7523;SDS011;3803;51.666;7.630;2022-11-06T00:33:13;10.80;;;6.55;;
7523;SDS011;3803;51.666;7.630;2022-11-06T00:33:35;8.23;;;6.50;;
7523;SDS011;3803;51.666;7.630;2022-11-06T00:33:56;7.65;;;6.57;;
7523;SDS011;3803;51.666;7.630;2022-11-06T00:34:18;8.80;;;6.78;;
7523;SDS011;3803;51.666;7.630;2022-11-06T00:34:38;9.65;;;7.00;;
7523;SDS011;3803;51.666;7.630;2022-11-06T00:34:59;9.25;;;6.70;;
7523;SDS011;3803;51.666;7.630;2022-11-06T00:35:20;8.30;;;6.63;;
7523;SDS011;3803;51.666;7.630;2022-11-06T00:35:41;8.47;;;6.60;;
7523;SDS011;3803;51.666;7.630;2022-11-06T00:36:05;9.35;;;6.93;;
7523;SDS011;3803;51.666;7.630;2022-11-06T00:36:29;8.55;;;6.35;;
7523;SDS011;3803;51.666;7.630;2022-11-06T00:36:50;8.45;;;6.43;;
7523;SDS011;3803;51.666;7.630;2022-11-06T00:37:10;7.60;;;6.40;;
7523;SDS011;3803;51.666;7.630;2022-11-06T00:37:31;7.43;;;6.30;;
7523;SDS011;3803;51.666;7.630;2022-11-06T00:37:52;6.93;;;6.03;;
7523;SDS011;3803;51.666;7.630;2022-11-06T00:38:13;9.65;;;6.20;;
7523;SDS011;3803;51.666;7.630;2022-11-06T00:38:34;10.40;;;6.60;;
7523;SDS011;3803;51.666;7.630;2022-11-06T00:38:55;10.02;;;6.65;;
7523;SDS011;3803;51.666;7.630;2022-11-06T00:39:17;7.60;;;6.60;;
7523;SDS011;3803;51.666;7.630;2022-11-06T00:39:37;7.70;;;6.50;;
7523;SDS011;3803;51.666;7.630;2022-11-06T00:39:58;8.20;;;6.90;;
7523;SDS011;3803;51.666;7.630;2022-11-06T00:40:19;8.65;;;7.10;;
7523;SDS011;3803;51.666;7.630;2022-11-06T00:40:40;7.95;;;6.88;;
7523;SDS011;3803;51.666;7.630;2022-11-06T00:41:01;7.88;;;6.65;;
7523;SDS011;3803;51.666;7.630;2022-11-06T00:41:23;8.93;;;6.50;;
7523;SDS011;3803;51.666;7.630;2022-11-06T00:41:44;8.90;;;6.70;;
7523;SDS011;3803;51.666;7.630;2022-11-06T00:42:04;9.80;;;6.50;;
7523;SDS011;3803;51.666;7.630;2022-11-06T00:42:25;9.02;;;6.70;;
7523;SDS011;3803;51.666;7.630;2022-11-06T00:42:46;10.30;;;7.00;;
7523;SDS011;3803;51.666;7.630;2022-11-06T00:43:06;9.10;;;6.80;;
7523;SDS011;3803;51.666;7.630;2022-11-06T00:43:27;9.73;;;6.68;;
7523;SDS011;3803;51.666;7.630;2022-11-06T00:43:48;8.80;;;6.53;;
7523;SDS011;3803;51.666;7.630;2022-11-06T00:44:10;9.77;;;7.00;;
7523;SDS011;3803;51.666;7.630;2022-11-06T00:44:31;8.90;;;6.97;;
7523;SDS011;3803;51.666;7.630;2022-11-06T00:44:51;8.90;;;6.87;;
7523;SDS011;3803;51.666;7.630;2022-11-06T00:45:12;8.27;;;6.93;;
7523;SDS011;3803;51.666;7.630;2022-11-06T00:45:32;9.25;;;6.95;;
7523;SDS011;3803;51.666;7.630;2022-11-06T00:45:53;9.43;;;6.90;;
7523;SDS011;3803;51.666;7.630;2022-11-06T00:46:19;9.77;;;6.95;;
7523;SDS011;3803;51.666;7.630;2022-11-06T00:46:40;8.70;;;6.97;;
7523;SDS011;3803;51.666;7.630;2022-11-06T00:47:00;9.45;;;7.10;;
7523;SDS011;3803;51.666;7.630;2022-11-06T00:47:27;8.82;;;6.97;;
7523;SDS011;3803;51.666;7.630;2022-11-06T00:47:47;8.40;;;6.80;;
7523;SDS011;3803;51.666;7.630;2022-11-06T00:48:08;9.38;;;6.95;;
7523;SDS011;3803;51.666;7.630;2022-11-06T00:48:29;8.95;;;6.57;;
7523;SDS011;3803;51.666;7.630;2022-11-06T00:48:50;8.63;;;6.50;;
7523;SDS011;3803;51.666;7.630;2022-11-06T00:49:12;7.70;;;6.10;;
7523;SDS011;3803;51.666;7.630;2022-11-06T00:49:32;8.60;;;6.23;;
7523;SDS011;3803;51.666;7.630;2022-11-06T00:49:53;7.95;;;5.95;;
7523;SDS011;3803;51.666;7.630;2022-11-06T00:50:13;7.53;;;6.30;;
7523;SDS011;3803;51.666;7.630;2022-11-06T00:50:34;7.80;;;6.60;;
7523;SDS011;3803;51.666;7.630;2022-11-06T00:51:00;9.52;;;6.60;;
7523;SDS011;3803;51.666;7.630;2022-11-06T00:51:31;9.18;;;6.30;;
7523;SDS011;3803;51.666;7.630;2022-11-06T00:51:55;7.30;;;6.40;;
7523;SDS011;3803;51.666;7.630;2022-11-06T00:52:15;6.63;;;6.03;;
7523;SDS011;3803;51.666;7.630;2022-11-06T00:52:36;7.17;;;6.20;;
7523;SDS011;3803;51.666;7.630;2022-11-06T00:52:56;7.40;;;6.20;;
7523;SDS011;3803;51.666;7.630;2022-11-06T00:53:17;8.97;;;6.53;;
7523;SDS011;3803;51.666;7.630;2022-11-06T00:53:37;9.57;;;6.80;;
7523;SDS011;3803;51.666;7.630;2022-11-06T00:54:00;9.32;;;7.00;;
7523;SDS011;3803;51.666;7.630;2022-11-06T00:54:22;8.73;;;6.55;;
7523;SDS011;3803;51.666;7.630;2022-11-06T00:54:43;9.70;;;6.63;;
7523;SDS011;3803;51.666;7.630;2022-11-06T00:55:04;9.45;;;6.50;;
7523;SDS011;3803;51.666;7.630;2022-11-06T00:55:28;10.10;;;6.82;;
7523;SDS011;3803;51.666;7.630;2022-11-06T00:55:48;8.88;;;6.63;;
7523;SDS011;3803;51.666;7.630;2022-11-06T00:56:11;8.90;;;6.43;;
7523;SDS011;3803;51.666;7.630;2022-11-06T00:56:34;8.77;;;6.40;;
7523;SDS011;3803;51.666;7.630;2022-11-06T00:56:55;8.15;;;6.20;;
7523;SDS011;3803;51.666;7.630;2022-11-06T00:57:16;7.30;;;6.00;;
7523;SDS011;3803;51.666;7.630;2022-11-06T00:57:36;6.93;;;5.80;;
7523;SDS011;3803;51.666;7.630;2022-11-06T00:57:57;7.68;;;5.85;;
7523;SDS011;3803;51.666;7.630;2022-11-06T00:58:17;7.50;;;6.10;;
7523;SDS011;3803;51.666;7.630;2022-11-06T00:58:38;8.00;;;6.10;;
7523;SDS011;3803;51.666;7.630;2022-11-06T00:59:00;7.72;;;6.40;;
7523;SDS011;3803;51.666;7.630;2022-11-06T00:59:29;7.75;;;6.70;;
7523;SDS011;3803;51.666;7.630;2022-11-06T00:59:49;8.48;;;6.60;;
7523;SDS011;3803;51.666;7.630;2022-11-06T01:00:11;8.98;;;6.70;;
7523;SDS011;3803;51.666;7.630;2022-11-06T01:00:32;9.52;;;6.90;;
7523;SDS011;3803;51.666;7.630;2022-11-06T01:00:52;8.93;;;7.30;;
7523;SDS011;3803;51.666;7.630;2022-11-06T01:01:40;7.70;;;6.90;;
7523;SDS011;3803;51.666;7.630;2022-11-06T01:02:03;7.70;;;6.60;;
7523;SDS011;3803;51.666;7.630;2022-11-06T01:02:24;10.30;;;6.90;;
7523;SDS011;3803;51.666;7.630;2022-11-06T01:02:44;11.43;;;7.10;;
7523;SDS011;3803;51.666;7.630;2022-11-06T01:03:06;11.57;;;6.90;;
7523;SDS011;3803;51.666;7.630;2022-11-06T01:03:26;10.45;;;6.65;;
7523;SDS011;3803;51.666;7.630;2022-11-06T01:03:51;9.97;;;6.80;;
7523;SDS011;3803;51.666;7.630;2022-11-06T01:04:14;7.65;;;6.55;;
7523;SDS011;3803;51.666;7.630;2022-11-06T01:04:37;7.30;;;6.40;;
7523;SDS011;3803;51.666;7.630;2022-11-06T01:04:57;9.13;;;6.37;;
7523;SDS011;3803;51.666;7.630;2022-11-06T01:05:18;11.70;;;6.50;;
7523;SDS011;3803;51.666;7.630;2022-11-06T01:05:38;12.13;;;6.57;;
7523;SDS011;3803;51.666;7.630;2022-11-06T01:06:05;9.07;;;6.30;;
7523;SDS011;3803;51.666;7.630;2022-11-06T01:06:29;10.25;;;6.38;;
7523;SDS011;3803;51.666;7.630;2022-11-06T01:06:53;11.13;;;6.32;;
7523;SDS011;3803;51.666;7.630;2022-11-06T01:07:16;9.95;;;6.20;;
7523;SDS011;3803;51.666;7.630;2022-11-06T01:07:36;10.00;;;6.22;;
7523;SDS011;3803;51.666;7.630;2022-11-06T01:07:57;10.75;;;6.70;;
7523;SDS011;3803;51.666;7.630;2022-11-06T01:08:18;11.13;;;6.60;;
7523;SDS011;3803;51.666;7.630;2022-11-06T01:08:38;10.97;;;6.90;;
7523;SDS011;3803;51.666;7.630;2022-11-06T01:09:00;8.32;;;6.43;;
7523;SDS011;3803;51.666;7.630;2022-11-06T01:09:22;7.65;;;6.22;;
7523;SDS011;3803;51.666;7.630;2022-11-06T01:09:44;7.57;;;5.90;;
7523;SDS011;3803;51.666;7.630;2022-11-06T01:10:05;8.18;;;5.97;;
7523;SDS011;3803;51.666;7.630;2022-11-06T01:10:27;9.18;;;5.88;;
7523;SDS011;3803;51.666;7.630;2022-11-06T01:10:47;8.45;;;5.80;;
7523;SDS011;3803;51.666;7.630;2022-11-06T01:11:15;8.40;;;5.83;;
7523;SDS011;3803;51.666;7.630;2022-11-06T01:11:39;9.57;;;6.57;;
7523;SDS011;3803;51.666;7.630;2022-11-06T01:12:02;9.15;;;6.40;;
7523;SDS011;3803;51.666;7.630;2022-11-06T01:12:23;9.57;;;6.55;;
7523;SDS011;3803;51.666;7.630;2022-11-06T01:12:44;10.43;;;6.60;;
7523;SDS011;3803;51.666;7.630;2022-11-06T01:13:04;10.90;;;6.65;;
7523;SDS011;3803;51.666;7.630;2022-11-06T01:13:25;10.40;;;6.70;;
7523;SDS011;3803;51.666;7.630;2022-11-06T01:13:47;8.90;;;6.60;;
7523;SDS011;3803;51.666;7.630;2022-11-06T01:14:10;9.18;;;6.70;;
7523;SDS011;3803;51.666;7.630;2022-11-06T01:14:33;9.13;;;6.43;;
7523;SDS011;3803;51.666;7.630;2022-11-06T01:14:54;9.65;;;6.25;;
7523;SDS011;3803;51.666;7.630;2022-11-06T01:15:16;10.70;;;6.50;;
7523;SDS011;3803;51.666;7.630;2022-11-06T01:15:36;11.70;;;6.80;;
7523;SDS011;3803;51.666;7.630;2022-11-06T01:15:57;9.67;;;6.40;;
7523;SDS011;3803;51.666;7.630;2022-11-06T01:16:17;7.90;;;6.40;;
7523;SDS011;3803;51.666;7.630;2022-11-06T01:16:39;6.80;;;6.00;;
7523;SDS011;3803;51.666;7.630;2022-11-06T01:16:59;8.18;;;6.38;;
7523;SDS011;3803;51.666;7.630;2022-11-06T01:17:20;9.73;;;6.40;;
7523;SDS011;3803;51.666;7.630;2022-11-06T01:17:41;9.63;;;6.70;;
7523;SDS011;3803;51.666;7.630;2022-11-06T01:18:01;10.45;;;6.68;;
7523;SDS011;3803;51.666;7.630;2022-11-06T01:18:22;9.65;;;6.65;;
7523;SDS011;3803;51.666;7.630;2022-11-06T01:18:43;8.97;;;6.10;;
7523;SDS011;3803;51.666;7.630;2022-11-06T01:19:04;7.07;;;6.05;;
7523;SDS011;3803;51.666;7.630;2022-11-06T01:19:26;7.80;;;6.25;;
7523;SDS011;3803;51.666;7.630;2022-11-06T01:19:46;8.37;;;6.50;;
7523;SDS011;3803;51.666;7.630;2022-11-06T01:20:07;8.75;;;6.50;;
7523;SDS011;3803;51.666;7.630;2022-11-06T01:20:28;7.70;;;6.15;;
7523;SDS011;3803;51.666;7.630;2022-11-06T01:20:49;7.57;;;6.05;;
7523;SDS011;3803;51.666;7.630;2022-11-06T01:21:12;7.63;;;5.97;;
7523;SDS011;3803;51.666;7.630;2022-11-06T01:21:40;8.43;;;6.30;;
7523;SDS011;3803;51.666;7.630;2022-11-06T01:22:02;8.77;;;6.38;;
7523;SDS011;3803;51.666;7.630;2022-11-06T01:22:23;8.35;;;6.10;;
7523;SDS011;3803;51.666;7.630;2022-11-06T01:22:43;9.77;;;6.35;;
7523;SDS011;3803;51.666;7.630;2022-11-06T01:23:04;9.65;;;6.50;;
7523;SDS011;3803;51.666;7.630;2022-11-06T01:23:25;8.97;;;6.60;;
7523;SDS011;3803;51.666;7.630;2022-11-06T01:23:45;7.82;;;6.60;;
7523;SDS011;3803;51.666;7.630;2022-11-06T01:24:09;9.73;;;6.70;;
7523;SDS011;3803;51.666;7.630;2022-11-06T01:24:31;9.13;;;6.38;;
7523;SDS011;3803;51.666;7.630;2022-11-06T01:24:52;8.02;;;6.25;;
7523;SDS011;3803;51.666;7.630;2022-11-06T01:25:13;8.13;;;6.20;;
7523;SDS011;3803;51.666;7.630;2022-11-06T01:25:36;9.35;;;6.43;;
7523;SDS011;3803;51.666;7.630;2022-11-06T01:25:57;10.18;;;6.65;;
7523;SDS011;3803;51.666;7.630;2022-11-06T01:26:19;10.10;;;6.55;;
7523;SDS011;3803;51.666;7.630;2022-11-06T01:26:40;8.93;;;6.28;;
7523;SDS011;3803;51.666;7.630;2022-11-06T01:27:01;7.63;;;5.80;;
7523;SDS011;3803;51.666;7.630;2022-11-06T01:27:22;8.60;;;5.78;;
7523;SDS011;3803;51.666;7.630;2022-11-06T01:27:42;8.85;;;5.90;;
7523;SDS011;3803;51.666;7.630;2022-11-06T01:28:03;9.97;;;6.17;;
7523;SDS011;3803;51.666;7.630;2022-11-06T01:28:24;8.87;;;6.30;;
7523;SDS011;3803;51.666;7.630;2022-11-06T01:28:45;8.10;;;6.38;;
7523;SDS011;3803;51.666;7.630;2022-11-06T01:29:10;7.30;;;6.10;;
7523;SDS011;3803;51.666;7.630;2022-11-06T01:29:34;7.40;;;5.57;;
7523;SDS011;3803;51.666;7.630;2022-11-06T01:29:55;6.85;;;5.60;;
7523;SDS011;3803;51.666;7.630;2022-11-06T01:30:16;7.45;;;5.60;;
7523;SDS011;3803;51.666;7.630;2022-11-06T01:30:37;7.88;;;5.95;;
7523;SDS011;3803;51.666;7.630;2022-11-06T01:31:04;8.60;;;5.80;;
7523;SDS011;3803;51.666;7.630;2022-11-06T01:31:31;7.95;;;5.70;;
7523;SDS011;3803;51.666;7.630;2022-11-06T01:31:52;7.30;;;5.70;;
7523;SDS011;3803;51.666;7.630;2022-11-06T01:32:13;7.05;;;5.70;;
7523;SDS011;3803;51.666;7.630;2022-11-06T01:32:35;7.27;;;5.60;;
7523;SDS011;3803;51.666;7.630;2022-11-06T01:32:55;6.80;;;5.70;;
7523;SDS011;3803;51.666;7.630;2022-11-06T01:33:16;7.18;;;5.50;;
7523;SDS011;3803;51.666;7.630;2022-11-06T01:33:37;8.05;;;5.97;;
7523;SDS011;3803;51.666;7.630;2022-11-06T01:33:58;8.32;;;5.90;;
7523;SDS011;3803;51.666;7.630;2022-11-06T01:34:20;7.85;;;5.63;;
7523;SDS011;3803;51.666;7.630;2022-11-06T01:34:40;7.28;;;5.43;;
7523;SDS011;3803;51.666;7.630;2022-11-06T01:35:01;6.73;;;5.47;;
7523;SDS011;3803;51.666;7.630;2022-11-06T01:35:21;7.20;;;5.70;;
7523;SDS011;3803;51.666;7.630;2022-11-06T01:35:45;7.60;;;5.65;;
7523;SDS011;3803;51.666;7.630;2022-11-06T01:36:11;9.40;;;5.90;;
7523;SDS011;3803;51.666;7.630;2022-11-06T01:36:33;8.05;;;5.70;;
7523;SDS011;3803;51.666;7.630;2022-11-06T01:36:54;8.77;;;5.67;;
7523;SDS011;3803;51.666;7.630;2022-11-06T01:37:14;7.18;;;5.40;;
7523;SDS011;3803;51.666;7.630;2022-11-06T01:37:35;8.20;;;5.90;;
7523;SDS011;3803;51.666;7.630;2022-11-06T01:37:55;7.20;;;5.90;;
7523;SDS011;3803;51.666;7.630;2022-11-06T01:38:16;7.65;;;6.05;;
7523;SDS011;3803;51.666;7.630;2022-11-06T01:38:40;9.00;;;5.78;;
7523;SDS011;3803;51.666;7.630;2022-11-06T01:39:03;9.23;;;5.60;;
7523;SDS011;3803;51.666;7.630;2022-11-06T01:39:25;8.68;;;5.50;;
7523;SDS011;3803;51.666;7.630;2022-11-06T01:39:47;7.40;;;5.75;;
7523;SDS011;3803;51.666;7.630;2022-11-06T01:40:08;7.13;;;5.97;;
7523;SDS011;3803;51.666;7.630;2022-11-06T01:40:29;7.60;;;6.00;;
7523;SDS011;3803;51.666;7.630;2022-11-06T01:41:10;7.93;;;6.00;;
7523;SDS011;3803;51.666;7.630;2022-11-06T01:42:04;6.85;;;5.50;;
7523;SDS011;3803;51.666;7.630;2022-11-06T01:42:25;7.33;;;5.80;;
7523;SDS011;3803;51.666;7.630;2022-11-06T01:42:45;8.57;;;6.10;;
7523;SDS011;3803;51.666;7.630;2022-11-06T01:43:16;9.07;;;6.00;;
7523;SDS011;3803;51.666;7.630;2022-11-06T01:43:51;8.90;;;5.97;;
7523;SDS011;3803;51.666;7.630;2022-11-06T01:45:36;7.57;;;5.65;;
7523;SDS011;3803;51.666;7.630;2022-11-06T01:45:41;7.28;;;5.20;;
7523;SDS011;3803;51.666;7.630;2022-11-06T01:46:03;6.53;;;5.18;;
7523;SDS011;3803;51.666;7.630;2022-11-06T01:46:25;9.13;;;5.30;;
7523;SDS011;3803;51.666;7.630;2022-11-06T01:46:48;8.98;;;5.40;;
7523;SDS011;3803;51.666;7.630;2022-11-06T01:47:29;8.00;;;5.38;;
7523;SDS011;3803;51.666;7.630;2022-11-06T01:47:49;6.30;;;5.00;;
7523;SDS011;3803;51.666;7.630;2022-11-06T01:48:11;6.45;;;5.10;;
7523;SDS011;3803;51.666;7.630;2022-11-06T01:48:32;7.63;;;5.47;;
7523;SDS011;3803;51.666;7.630;2022-11-06T01:48:56;8.63;;;5.78;;
7523;SDS011;3803;51.666;7.630;2022-11-06T01:49:20;8.13;;;5.80;;
7523;SDS011;3803;51.666;7.630;2022-11-06T01:49:40;7.00;;;5.70;;
7523;SDS011;3803;51.666;7.630;2022-11-06T01:50:07;6.68;;;5.40;;
7523;SDS011;3803;51.666;7.630;2022-11-06T01:50:30;6.97;;;5.30;;
7523;SDS011;3803;51.666;7.630;2022-11-06T01:50:53;7.13;;;5.03;;
7523;SDS011;3803;51.666;7.630;2022-11-06T01:51:17;6.40;;;4.93;;
7523;SDS011;3803;51.666;7.630;2022-11-06T01:51:44;5.50;;;4.70;;
7523;SDS011;3803;51.666;7.630;2022-11-06T01:52:20;7.50;;;5.25;;
7523;SDS011;3803;51.666;7.630;2022-11-06T01:52:42;8.73;;;5.57;;
7523;SDS011;3803;51.666;7.630;2022-11-06T01:53:05;9.05;;;5.50;;
7523;SDS011;3803;51.666;7.630;2022-11-06T01:53:26;6.82;;;5.20;;
7523;SDS011;3803;51.666;7.630;2022-11-06T01:53:47;7.82;;;5.20;;
7523;SDS011;3803;51.666;7.630;2022-11-06T01:54:08;7.80;;;5.23;;
7523;SDS011;3803;51.666;7.630;2022-11-06T01:54:29;7.30;;;5.15;;
7523;SDS011;3803;51.666;7.630;2022-11-06T01:54:54;7.63;;;5.30;;
7523;SDS011;3803;51.666;7.630;2022-11-06T01:55:22;6.88;;;5.10;;
7523;SDS011;3803;51.666;7.630;2022-11-06T01:55:45;6.93;;;5.20;;
7523;SDS011;3803;51.666;7.630;2022-11-06T01:56:08;7.22;;;5.30;;
7523;SDS011;3803;51.666;7.630;2022-11-06T01:56:31;7.88;;;5.00;;
7523;SDS011;3803;51.666;7.630;2022-11-06T01:56:53;9.10;;;5.10;;
7523;SDS011;3803;51.666;7.630;2022-11-06T01:57:16;7.43;;;5.20;;
7523;SDS011;3803;51.666;7.630;2022-11-06T01:57:36;8.60;;;5.50;;
7523;SDS011;3803;51.666;7.630;2022-11-06T01:57:59;8.60;;;5.38;;
7523;SDS011;3803;51.666;7.630;2022-11-06T01:58:21;9.45;;;5.40;;
7523;SDS011;3803;51.666;7.630;2022-11-06T01:58:44;6.88;;;5.40;;
7523;SDS011;3803;51.666;7.630;2022-11-06T01:59:06;8.25;;;5.22;;
7523;SDS011;3803;51.666;7.630;2022-11-06T01:59:30;8.52;;;5.20;;
7523;SDS011;3803;51.666;7.630;2022-11-06T02:00:13;7.72;;;5.10;;
7523;SDS011;3803;51.666;7.630;2022-11-06T02:00:36;7.75;;;5.38;;
7523;SDS011;3803;51.666;7.630;2022-11-06T02:00:56;8.77;;;5.70;;
7523;SDS011;3803;51.666;7.630;2022-11-06T02:01:18;7.40;;;5.40;;
7523;SDS011;3803;51.666;7.630;2022-11-06T02:01:38;6.38;;;5.30;;
7523;SDS011;3803;51.666;7.630;2022-11-06T02:01:59;5.93;;;5.00;;
7523;SDS011;3803;51.666;7.630;2022-11-06T02:02:20;6.45;;;5.00;;
7523;SDS011;3803;51.666;7.630;2022-11-06T02:02:41;6.68;;;5.05;;
7523;SDS011;3803;51.666;7.630;2022-11-06T02:03:02;7.82;;;5.50;;
7523;SDS011;3803;51.666;7.630;2022-11-06T02:03:23;8.00;;;5.60;;
7523;SDS011;3803;51.666;7.630;2022-11-06T02:03:47;7.88;;;5.50;;
7523;SDS011;3803;51.666;7.630;2022-11-06T02:04:50;6.53;;;4.65;;
7523;SDS011;3803;51.666;7.630;2022-11-06T02:05:10;6.80;;;4.80;;
7523;SDS011;3803;51.666;7.630;2022-11-06T02:05:31;8.10;;;5.15;;
7523;SDS011;3803;51.666;7.630;2022-11-06T02:05:52;7.53;;;5.00;;
7523;SDS011;3803;51.666;7.630;2022-11-06T02:06:13;7.38;;;5.22;;
7523;SDS011;3803;51.666;7.630;2022-11-06T02:06:34;7.50;;;5.20;;
7523;SDS011;3803;51.666;7.630;2022-11-06T02:06:56;7.68;;;5.20;;
7523;SDS011;3803;51.666;7.630;2022-11-06T02:07:18;7.57;;;5.10;;
7523;SDS011;3803;51.666;7.630;2022-11-06T02:07:39;6.88;;;5.22;;
7523;SDS011;3803;51.666;7.630;2022-11-06T02:08:01;7.20;;;5.40;;
7523;SDS011;3803;51.666;7.630;2022-11-06T02:08:22;7.20;;;5.23;;
7523;SDS011;3803;51.666;7.630;2022-11-06T02:08:44;7.55;;;5.05;;
7523;SDS011;3803;51.666;7.630;2022-11-06T02:09:05;8.23;;;5.23;;
7523;SDS011;3803;51.666;7.630;2022-11-06T02:09:30;8.95;;;5.32;;
7523;SDS011;3803;51.666;7.630;2022-11-06T02:09:53;7.88;;;5.20;;
7523;SDS011;3803;51.666;7.630;2022-11-06T02:10:13;7.57;;;5.25;;
7523;SDS011;3803;51.666;7.630;2022-11-06T02:10:34;7.57;;;5.20;;
7523;SDS011;3803;51.666;7.630;2022-11-06T02:10:56;7.53;;;5.30;;
7523;SDS011;3803;51.666;7.630;2022-11-06T02:11:17;6.50;;;5.30;;
7523;SDS011;3803;51.666;7.630;2022-11-06T02:11:42;5.43;;;4.80;;
7523;SDS011;3803;51.666;7.630;2022-11-06T02:13:53;8.18;;;4.90;;
7523;SDS011;3803;51.666;7.630;2022-11-06T02:17:14;8.98;;;4.90;;
7523;SDS011;3803;51.666;7.630;2022-11-06T02:17:55;6.20;;;4.50;;
7523;SDS011;3803;51.666;7.630;2022-11-06T02:21:42;6.13;;;4.30;;
7523;SDS011;3803;51.666;7.630;2022-11-06T02:24:44;7.45;;;4.75;;
7523;SDS011;3803;51.666;7.630;2022-11-06T02:26:10;6.93;;;4.85;;
7523;SDS011;3803;51.666;7.630;2022-11-06T02:27:07;8.48;;;5.00;;
7523;SDS011;3803;51.666;7.630;2022-11-06T02:27:31;8.63;;;5.25;;
7523;SDS011;3803;51.666;7.630;2022-11-06T02:27:55;8.18;;;5.20;;
7523;SDS011;3803;51.666;7.630;2022-11-06T02:28:25;7.63;;;4.93;;
7523;SDS011;3803;51.666;7.630;2022-11-06T02:28:55;7.43;;;4.90;;
7523;SDS011;3803;51.666;7.630;2022-11-06T02:29:28;6.95;;;4.90;;
7523;SDS011;3803;51.666;7.630;2022-11-06T02:30:29;5.93;;;4.50;;
7523;SDS011;3803;51.666;7.630;2022-11-06T02:30:53;6.95;;;4.38;;
7523;SDS011;3803;51.666;7.630;2022-11-06T02:31:19;7.28;;;4.60;;
7523;SDS011;3803;51.666;7.630;2022-11-06T02:31:45;7.15;;;4.90;;
7523;SDS011;3803;51.666;7.630;2022-11-06T02:32:09;7.20;;;4.80;;
7523;SDS011;3803;51.666;7.630;2022-11-06T02:32:47;8.00;;;4.60;;
7523;SDS011;3803;51.666;7.630;2022-11-06T02:33:11;7.75;;;4.30;;
7523;SDS011;3803;51.666;7.630;2022-11-06T02:33:37;8.60;;;4.20;;
7523;SDS011;3803;51.666;7.630;2022-11-06T02:34:10;8.88;;;4.20;;
7523;SDS011;3803;51.666;7.630;2022-11-06T02:34:33;8.23;;;4.38;;
7523;SDS011;3803;51.666;7.630;2022-11-06T02:34:56;8.00;;;4.60;;
7523;SDS011;3803;51.666;7.630;2022-11-06T02:35:31;7.22;;;4.47;;
7523;SDS011;3803;51.666;7.630;2022-11-06T02:36:07;7.18;;;4.47;;